Time;durP1;ratioP1;P1;durP2;ratioP2;P2;SDS_P1;SDS_P2;PMS_P1;PMS_P2;Temp;Humidity;BMP_temperature;BMP_pressure;BME280_temperature;BME280_humidity;BME280_pressure;Samples;Min_cycle;Max_cycle;Signal;HPM_P1;HPM_P2
2023/06/24 00:01:31;;;;;;;;;;;;;;;30.29;33.18;95007.19;4951205;28;9377;-60
2023/06/24 00:04:09;;;;;;;;;;;;;;;30.25;32.97;95008.78;4909696;29;7064;-60
2023/06/24 00:06:36;;;;;;;;;;;;;;;30.27;32.36;95009.75;4909308;29;7075;-60
2023/06/24 00:09:03;;;;;;;;;;;;;;;30.26;32.21;95011.00;4908364;29;7291;-60
2023/06/24 00:11:33;;;;;;;;;;;;;;;30.25;32.62;95014.31;4895882;29;9034;-60
2023/06/24 00:14:37;;;;;;;;;;;;;;;30.25;32.99;95017.84;4895685;29;9014;-60
2023/06/24 00:17:16;;;;;;;;;;;;;;;30.25;32.54;95019.88;4892540;29;7286;-60
2023/06/24 00:20:26;;;;;;;;;;;;;;;30.24;32.03;95010.78;4876681;29;8937;-60
2023/06/24 00:23:05;;;;;;;;;;;;;;;30.23;31.92;95012.06;4889336;29;9035;-60
2023/06/24 00:25:31;;;;;;;;;;;;;;;30.21;32.48;95009.06;4908176;29;7058;-60
2023/06/24 00:27:58;;;;;;;;;;;;;;;30.22;32.05;95012.59;4906044;29;7624;-60
2023/06/24 00:30:33;;;;;;;;;;;;;;;30.23;32.89;95014.09;4927491;28;7253;-60
2023/06/24 00:33:00;;;;;;;;;;;;;;;30.24;32.83;95010.78;4949650;28;7172;-60
2023/06/24 00:35:26;;;;;;;;;;;;;;;30.22;32.93;95010.56;4981085;28;7887;-60
2023/06/24 00:37:57;;;;;;;;;;;;;;;30.22;32.09;95013.34;4948190;28;7260;-60
2023/06/24 00:40:24;;;;;;;;;;;;;;;30.20;32.49;95013.13;4993952;28;7331;-60
2023/06/24 00:43:04;;;;;;;;;;;;;;;30.22;32.03;95016.13;5043524;28;9040;-60
2023/06/24 00:45:33;;;;;;;;;;;;;;;30.22;31.99;95013.34;5023531;28;7132;-60
2023/06/24 00:48:00;;;;;;;;;;;;;;;30.19;32.39;95011.63;5023692;28;7040;-60
2023/06/24 00:50:49;;;;;;;;;;;;;;;30.24;32.81;95007.25;5045454;28;7348;-60
2023/06/24 00:53:27;;;;;;;;;;;;;;;30.23;31.70;95014.84;5027973;28;7241;-60
2023/06/24 00:55:55;;;;;;;;;;;;;;;30.24;32.48;95021.91;5026412;28;6990;-60
2023/06/24 00:58:25;;;;;;;;;;;;;;;30.24;33.17;95013.56;5026962;28;9192;-60
2023/06/24 01:00:57;;;;;;;;;;;;;;;30.24;32.55;95007.25;5018893;28;7272;-60
2023/06/24 01:03:26;;;;;;;;;;;;;;;30.24;31.85;95019.13;5026169;28;7269;-60
2023/06/24 01:05:59;;;;;;;;;;;;;;;30.23;32.92;95008.56;5059627;28;9058;-60
2023/06/24 01:08:26;;;;;;;;;;;;;;;30.21;32.27;95009.06;5044631;28;8216;-60
2023/06/24 01:11:13;;;;;;;;;;;;;;;30.21;32.53;95016.66;5030877;28;6998;-60
2023/06/24 01:13:44;;;;;;;;;;;;;;;30.19;32.48;95017.16;5046176;28;7087;-60
2023/06/24 01:16:55;;;;;;;;;;;;;;;30.19;33.34;95011.63;5044236;28;7257;-60
2023/06/24 01:19:39;;;;;;;;;;;;;;;30.20;32.56;95018.69;4967536;28;7607;-60
2023/06/24 01:22:22;;;;;;;;;;;;;;;30.21;32.34;95019.44;4951739;28;8705;-60
2023/06/24 01:25:36;;;;;;;;;;;;;;;30.18;33.20;95024.00;4953298;28;7246;-60
2023/06/24 01:28:42;;;;;;;;;;;;;;;30.18;33.10;95026.03;4904483;29;7285;-60
2023/06/24 01:32:05;;;;;;;;;;;;;;;30.17;32.76;95016.94;4909530;29;6933;-60
2023/06/24 01:38:38;;;;;;;;;;;;;;;30.14;32.12;95026.34;4876288;29;6909;-60
2023/06/24 01:41:30;;;;;;;;;;;;;;;30.12;32.79;95022.59;4878661;29;8448;-60
2023/06/24 01:43:58;;;;;;;;;;;;;;;30.13;33.30;95026.84;4862034;29;7037;-60
2023/06/24 01:46:48;;;;;;;;;;;;;;;30.13;32.46;95022.06;4877927;29;7264;-60
2023/06/24 01:49:17;;;;;;;;;;;;;;;30.14;33.21;95020.78;4876546;29;7117;-60
2023/06/24 01:52:13;;;;;;;;;;;;;;;30.13;33.24;95012.97;4877152;29;7611;-60
2023/06/24 01:54:54;;;;;;;;;;;;;;;30.13;33.32;95016.50;4920596;29;9417;-60
2023/06/24 01:57:27;;;;;;;;;;;;;;;30.12;32.79;95012.25;4938813;28;7242;-60
2023/06/24 01:59:56;;;;;;;;;;;;;;;30.09;32.53;95021.59;4935769;28;7081;-60
2023/06/24 02:02:26;;;;;;;;;;;;;;;30.11;33.33;95026.63;4935798;28;9061;-60
2023/06/24 02:05:18;;;;;;;;;;;;;;;30.09;33.20;95013.28;4955276;28;9645;-60
2023/06/24 02:08:20;;;;;;;;;;;;;;;30.10;33.29;95011.28;4977207;28;7685;-60
2023/06/24 02:10:59;;;;;;;;;;;;;;;30.10;32.63;95017.53;4951979;28;7180;-60
2023/06/24 02:13:28;;;;;;;;;;;;;;;30.07;32.46;95003.97;4941095;28;7044;-60
2023/06/24 02:16:25;;;;;;;;;;;;;;;30.08;33.63;95005.50;4950258;28;7265;-59
2023/06/24 02:19:07;;;;;;;;;;;;;;;30.06;32.85;95008.78;4878527;29;7057;-60
2023/06/24 02:21:47;;;;;;;;;;;;;;;30.06;33.11;95002.50;4879384;29;7161;-60
2023/06/24 02:24:45;;;;;;;;;;;;;;;30.05;32.66;95003.75;4876198;29;9238;-60
2023/06/24 02:27:26;;;;;;;;;;;;;;;30.03;33.15;94998.75;4843854;29;9061;-60
2023/06/24 02:30:08;;;;;;;;;;;;;;;30.04;32.67;94997.47;4857417;29;8334;-60
2023/06/24 02:32:38;;;;;;;;;;;;;;;30.06;33.47;94997.69;4868522;29;7044;-60
2023/06/24 02:35:35;;;;;;;;;;;;;;;30.03;32.79;95007.06;4871570;29;7303;-60
2023/06/24 02:38:12;;;;;;;;;;;;;;;30.01;33.22;94995.75;4862628;29;8253;-60
2023/06/24 02:41:04;;;;;;;;;;;;;;;30.03;32.80;95009.84;4862967;29;9011;-60
2023/06/24 02:44:03;;;;;;;;;;;;;;;30.01;32.55;95000.53;4859878;29;7284;-60
2023/06/24 02:46:43;;;;;;;;;;;;;;;29.98;33.67;95009.91;4897207;29;7419;-60
2023/06/24 02:49:33;;;;;;;;;;;;;;;29.97;33.79;95003.59;4903546;29;9026;-60
2023/06/24 02:52:36;;;;;;;;;;;;;;;29.97;32.77;95000.09;4911954;29;9319;-60
2023/06/24 02:55:21;;;;;;;;;;;;;;;29.96;33.77;95006.91;4912110;29;8760;-60
2023/06/24 02:57:50;;;;;;;;;;;;;;;29.97;33.37;95000.09;4925345;29;8206;-60
2023/06/24 03:00:20;;;;;;;;;;;;;;;29.95;33.41;95003.38;4910570;29;7354;-60
2023/06/24 03:02:49;;;;;;;;;;;;;;;29.95;32.83;95006.16;4929606;28;8716;-60
2023/06/24 03:05:26;;;;;;;;;;;;;;;29.95;32.51;95002.66;4916580;28;8992;-60
2023/06/24 03:07:57;;;;;;;;;;;;;;;29.94;33.28;95001.91;4936807;28;7216;-60
2023/06/24 03:10:54;;;;;;;;;;;;;;;29.95;33.82;95013.75;4950631;28;9460;-60
2023/06/24 03:13:34;;;;;;;;;;;;;;;29.92;32.84;95009.25;4934219;28;7180;-60
2023/06/24 03:16:35;;;;;;;;;;;;;;;29.92;32.54;95012.00;4939289;28;7506;-60
2023/06/24 03:19:18;;;;;;;;;;;;;;;29.91;32.96;95013.28;4922619;29;7043;-60
2023/06/24 03:21:46;;;;;;;;;;;;;;;29.89;33.41;95015.81;4907509;29;8767;-60
2023/06/24 03:24:25;;;;;;;;;;;;;;;29.90;33.17;95022.88;4908588;29;8950;-60
2023/06/24 03:27:06;;;;;;;;;;;;;;;29.91;32.65;95014.03;4908118;29;9106;-60
2023/06/24 03:29:43;;;;;;;;;;;;;;;29.91;33.36;95014.03;4955012;28;7022;-60
2023/06/24 03:32:27;;;;;;;;;;;;;;;29.90;33.65;95017.34;4970208;28;9427;-60
2023/06/24 03:34:54;;;;;;;;;;;;;;;29.90;32.63;95018.09;4952573;28;7428;-60
2023/06/24 03:37:56;;;;;;;;;;;;;;;29.88;32.89;95025.44;4971303;28;7610;-60
2023/06/24 03:40:32;;;;;;;;;;;;;;;29.86;32.72;95017.66;4969278;28;9237;-60
2023/06/24 03:43:31;;;;;;;;;;;;;;;29.87;32.80;95016.38;4956102;28;9712;-60
2023/06/24 03:46:06;;;;;;;;;;;;;;;29.84;33.52;95009.06;4955565;28;10474;-60
2023/06/24 03:48:37;;;;;;;;;;;;;;;29.86;32.82;95017.66;4952832;28;7310;-60
2023/06/24 03:51:13;;;;;;;;;;;;;;;29.85;32.68;95010.59;4955394;28;7335;-60
2023/06/24 03:54:10;;;;;;;;;;;;;;;29.84;32.66;95017.41;4956753;28;7041;-60
2023/06/24 03:56:51;;;;;;;;;;;;;;;29.84;33.12;95025.72;4990357;28;7319;-60
2023/06/24 03:59:53;;;;;;;;;;;;;;;29.82;32.38;95017.19;4991068;28;7857;-60
2023/06/24 04:05:46;;;;;;;;;;;;;;;29.80;33.35;95025.28;4990551;28;7268;-60
2023/06/24 04:08:33;;;;;;;;;;;;;;;29.80;32.79;95022.50;4989127;28;7249;-60
2023/06/24 04:11:16;;;;;;;;;;;;;;;29.79;32.52;95023.78;4988406;28;9014;-60
2023/06/24 04:13:45;;;;;;;;;;;;;;;29.79;33.12;95034.88;4978102;28;9003;-60
2023/06/24 04:16:11;;;;;;;;;;;;;;;29.79;32.70;95026.56;5045718;28;7324;-60
2023/06/24 04:18:54;;;;;;;;;;;;;;;29.77;33.17;95037.44;5021730;28;9211;-60
2023/06/24 04:21:20;;;;;;;;;;;;;;;29.76;32.96;95035.91;5028508;28;7129;-60
2023/06/24 04:23:56;;;;;;;;;;;;;;;29.76;32.40;95033.91;5031048;28;9296;-60
2023/06/24 04:26:23;;;;;;;;;;;;;;;29.75;33.47;95035.16;5032794;28;7058;-60
2023/06/24 04:28:58;;;;;;;;;;;;;;;29.76;33.52;95033.13;5032107;28;9548;-60
2023/06/24 04:31:43;;;;;;;;;;;;;;;29.76;33.16;95036.66;5024178;28;7063;-60
2023/06/24 04:34:11;;;;;;;;;;;;;;;29.77;32.89;95040.19;5044712;28;7112;-60
2023/06/24 04:37:18;;;;;;;;;;;;;;;29.77;32.27;95040.19;5025653;28;9649;-60
2023/06/24 04:39:47;;;;;;;;;;;;;;;29.78;32.95;95047.22;5047459;28;7110;-60
2023/06/24 04:42:14;;;;;;;;;;;;;;;29.77;32.88;95040.97;5023189;28;7552;-60
2023/06/24 04:44:53;;;;;;;;;;;;;;;29.77;32.47;95040.19;5032067;28;9507;-60
2023/06/24 04:47:22;;;;;;;;;;;;;;;29.76;32.61;95041.47;5028247;28;9530;-60
2023/06/24 04:50:41;;;;;;;;;;;;;;;29.77;32.21;95048.53;5046456;28;7008;-60
2023/06/24 04:53:38;;;;;;;;;;;;;;;29.75;32.59;95051.78;5033916;28;7319;-60
2023/06/24 04:56:31;;;;;;;;;;;;;;;29.76;32.43;95055.31;5027988;28;9100;-59
2023/06/24 04:59:08;;;;;;;;;;;;;;;29.74;32.64;95057.88;4953700;28;8841;-60
2023/06/24 05:01:36;;;;;;;;;;;;;;;29.74;33.06;95055.84;4950052;28;7138;-60
2023/06/24 05:04:16;;;;;;;;;;;;;;;29.72;33.04;95052.81;4951151;28;7611;-60
2023/06/24 05:10:20;;;;;;;;;;;;;;;29.69;32.24;95059.41;4950789;28;7333;-59
2023/06/24 05:13:07;;;;;;;;;;;;;;;29.69;32.99;95058.66;4952809;28;7360;-60
2023/06/24 05:16:03;;;;;;;;;;;;;;;29.72;32.50;95063.16;4950198;28;7079;-60
2023/06/24 05:18:29;;;;;;;;;;;;;;;29.74;32.51;95057.88;4878238;29;8677;-60
2023/06/24 05:20:55;;;;;;;;;;;;;;;29.76;33.04;95063.66;4879586;29;7223;-60
2023/06/24 05:23:31;;;;;;;;;;;;;;;29.72;32.82;95052.81;4890352;29;7354;-60
2023/06/24 05:26:11;;;;;;;;;;;;;;;29.76;33.42;95069.19;4877007;29;8342;-60
2023/06/24 05:28:51;;;;;;;;;;;;;;;29.73;33.11;95067.44;4878493;29;7061;-60
2023/06/24 05:31:38;;;;;;;;;;;;;;;29.75;33.57;95070.47;4875555;29;7141;-60
2023/06/24 05:34:08;;;;;;;;;;;;;;;29.76;33.22;95074.75;4893542;29;8265;-60
2023/06/24 05:36:50;;;;;;;;;;;;;;;29.76;33.52;95069.19;4971240;28;7529;-60
2023/06/24 05:39:19;;;;;;;;;;;;;;;29.77;33.28;95068.69;4988584;28;8231;-60
2023/06/24 05:41:55;;;;;;;;;;;;;;;29.77;33.12;95067.94;4973868;28;7085;-60
2023/06/24 05:44:23;;;;;;;;;;;;;;;29.76;33.14;95069.94;4973751;28;7430;-59
2023/06/24 05:46:59;;;;;;;;;;;;;;;29.76;33.61;95071.97;4990133;28;7201;-60
2023/06/24 05:49:58;;;;;;;;;;;;;;;29.74;33.44;95078.03;4991359;28;7013;-60
2023/06/24 05:52:40;;;;;;;;;;;;;;;29.73;33.79;95075.78;4938431;28;7023;-60
2023/06/24 05:55:09;;;;;;;;;;;;;;;29.75;32.92;95073.97;4956824;28;7291;-60
2023/06/24 05:57:38;;;;;;;;;;;;;;;29.78;33.20;95074.97;4994166;28;9414;-60
2023/06/24 06:00:06;;;;;;;;;;;;;;;29.78;34.04;95072.19;4997774;28;7052;-60
2023/06/24 06:02:32;;;;;;;;;;;;;;;29.76;33.85;95069.94;4970039;28;7006;-60
2023/06/24 06:05:01;;;;;;;;;;;;;;;29.74;33.63;95066.94;4966968;28;7199;-60
2023/06/24 06:07:32;;;;;;;;;;;;;;;29.75;33.37;95076.75;4972729;28;9044;-60
2023/06/24 06:10:00;;;;;;;;;;;;;;;29.77;33.34;95073.47;4991919;28;7103;-60
2023/06/24 06:12:40;;;;;;;;;;;;;;;29.77;33.43;95073.47;5007134;28;7584;-60
2023/06/24 06:15:18;;;;;;;;;;;;;;;29.80;33.31;95072.41;4980643;28;7229;-60
2023/06/24 06:17:46;;;;;;;;;;;;;;;29.80;33.99;95072.41;4991524;28;7160;-60
2023/06/24 06:20:15;;;;;;;;;;;;;;;29.77;33.31;95062.38;5006062;28;7041;-60
2023/06/24 06:22:41;;;;;;;;;;;;;;;29.80;33.39;95069.63;4977788;28;7104;-60
2023/06/24 06:25:10;;;;;;;;;;;;;;;29.79;33.84;95068.16;4969565;28;7018;-60
2023/06/24 06:27:36;;;;;;;;;;;;;;;29.75;34.08;95068.44;4984078;28;7208;-60
2023/06/24 06:30:04;;;;;;;;;;;;;;;29.76;34.01;95063.66;5018492;28;7356;-60
2023/06/24 06:32:45;;;;;;;;;;;;;;;29.79;34.08;95073.69;5026716;28;7616;-60
2023/06/24 06:35:21;;;;;;;;;;;;;;;29.79;33.32;95070.94;5043190;28;7345;-60
2023/06/24 06:37:52;;;;;;;;;;;;;;;29.82;33.84;95063.59;5028009;28;9321;-60
2023/06/24 06:40:33;;;;;;;;;;;;;;;29.80;34.27;95064.09;5028160;28;7055;-60
2023/06/24 06:43:02;;;;;;;;;;;;;;;29.83;33.76;95065.06;5028624;28;9071;-60
2023/06/24 06:45:29;;;;;;;;;;;;;;;29.84;34.28;95072.13;5020217;28;7298;-61
2023/06/24 06:47:55;;;;;;;;;;;;;;;29.86;34.18;95064.78;5019297;28;7525;-61
2023/06/24 06:50:22;;;;;;;;;;;;;;;29.86;33.16;95055.72;5018378;28;6996;-61
2023/06/24 06:52:49;;;;;;;;;;;;;;;29.85;34.04;95054.22;5053157;28;8240;-61
2023/06/24 06:55:15;;;;;;;;;;;;;;;29.88;33.68;95059.47;5022126;28;8867;-61
2023/06/24 06:57:43;;;;;;;;;;;;;;;29.89;33.94;95063.72;5036958;28;7185;-61
2023/06/24 07:00:14;;;;;;;;;;;;;;;29.91;34.04;95057.66;5023690;28;7137;-61
2023/06/24 07:03:00;;;;;;;;;;;;;;;29.90;33.97;95068.03;5022328;28;7034;-61
2023/06/24 07:05:38;;;;;;;;;;;;;;;29.88;33.52;95059.47;5027426;28;9060;-62
2023/06/24 07:08:06;;;;;;;;;;;;;;;29.89;34.52;95060.97;5038426;28;6987;-61
2023/06/24 07:10:32;;;;;;;;;;;;;;;29.89;34.77;95054.66;5029283;28;7174;-61
2023/06/24 07:13:00;;;;;;;;;;;;;;;29.90;34.07;95058.94;5040578;28;7242;-62
2023/06/24 07:15:52;;;;;;;;;;;;;;;29.91;34.99;95063.19;5021884;28;7301;-61
2023/06/24 07:18:20;;;;;;;;;;;;;;;29.87;33.91;95051.66;5020485;28;7512;-61
2023/06/24 07:20:47;;;;;;;;;;;;;;;29.89;34.11;95049.88;5024847;28;7036;-61
2023/06/24 07:23:14;;;;;;;;;;;;;;;29.89;34.00;95052.63;5038765;28;7225;-61
2023/06/24 07:25:42;;;;;;;;;;;;;;;29.89;34.46;95040.78;5018900;28;7268;-61
2023/06/24 07:28:08;;;;;;;;;;;;;;;29.88;34.36;95045.59;5036114;28;7226;-61
2023/06/24 07:30:35;;;;;;;;;;;;;;;29.91;34.02;95041.00;5036500;28;9461;-61
2023/06/24 07:33:05;;;;;;;;;;;;;;;29.92;34.33;95039.75;5020771;28;7402;-61
2023/06/24 07:35:32;;;;;;;;;;;;;;;29.90;34.03;95037.50;5053245;28;7022;-61
2023/06/24 07:38:02;;;;;;;;;;;;;;;29.93;34.52;95039.22;5021514;28;7242;-61
2023/06/24 07:40:30;;;;;;;;;;;;;;;29.91;33.97;95035.47;5038374;28;8935;-61
2023/06/24 07:42:56;;;;;;;;;;;;;;;29.90;33.44;95033.97;5015396;28;7438;-61
2023/06/24 07:45:23;;;;;;;;;;;;;;;29.88;33.09;95028.22;5019835;28;7358;-61
2023/06/24 07:47:49;;;;;;;;;;;;;;;29.85;33.32;95027.22;5037772;28;7083;-61
2023/06/24 07:50:16;;;;;;;;;;;;;;;29.86;32.74;95034.28;5022653;28;9061;-61
2023/06/24 07:52:43;;;;;;;;;;;;;;;29.87;33.26;95021.91;5035983;28;8851;-61
2023/06/24 07:55:12;;;;;;;;;;;;;;;29.87;33.31;95018.38;5024532;28;7469;-61
2023/06/24 07:57:46;;;;;;;;;;;;;;;29.87;33.74;95018.38;5018374;28;7280;-61
2023/06/24 08:00:13;;;;;;;;;;;;;;;29.86;33.80;95017.66;5023009;28;7410;-61
2023/06/24 08:02:42;;;;;;;;;;;;;;;29.87;32.98;95012.81;5052621;28;7783;-61
2023/06/24 08:05:09;;;;;;;;;;;;;;;29.87;32.61;95016.38;5022248;28;7110;-61
2023/06/24 08:07:35;;;;;;;;;;;;;;;29.87;33.17;95010.81;5018122;28;7256;-61
2023/06/24 08:10:02;;;;;;;;;;;;;;;29.87;33.46;95007.28;5017548;28;7051;-61
2023/06/24 08:12:29;;;;;;;;;;;;;;;29.85;33.18;95007.81;5037164;28;7505;-61
2023/06/24 08:14:59;;;;;;;;;;;;;;;29.88;32.59;95012.31;5020042;28;7022;-61
2023/06/24 08:17:26;;;;;;;;;;;;;;;29.89;33.04;95007.50;5024758;28;7530;-61
2023/06/24 08:20:02;;;;;;;;;;;;;;;29.89;32.86;94999.19;5026161;28;8782;-61
2023/06/24 08:22:36;;;;;;;;;;;;;;;29.88;33.35;94998.47;5024609;28;8713;-61
2023/06/24 08:25:04;;;;;;;;;;;;;;;29.90;33.22;95000.69;5023837;28;9442;-61
2023/06/24 08:28:01;;;;;;;;;;;;;;;29.88;33.77;94992.91;5064085;28;9008;-62
2023/06/24 08:30:43;;;;;;;;;;;;;;;29.86;32.64;94989.91;4984931;28;9384;-61
2023/06/24 08:33:10;;;;;;;;;;;;;;;29.89;32.92;94985.31;5003685;28;7133;-61
2023/06/24 08:35:53;;;;;;;;;;;;;;;29.88;32.88;94987.38;5003222;28;9046;-61
2023/06/24 08:38:36;;;;;;;;;;;;;;;29.88;32.97;94981.81;4974318;28;8930;-61
2023/06/24 08:41:09;;;;;;;;;;;;;;;29.86;33.54;94980.84;5002426;28;7165;-61
2023/06/24 08:44:07;;;;;;;;;;;;;;;29.89;33.48;94988.09;5000056;28;7196;-61
2023/06/24 08:46:56;;;;;;;;;;;;;;;29.89;34.16;94986.06;4949993;28;9067;-60
2023/06/24 08:49:21;;;;;;;;;;;;;;;29.89;33.04;94982.53;4946623;28;7438;-61
2023/06/24 08:52:16;;;;;;;;;;;;;;;29.90;34.02;94984.06;4948388;28;7030;-61
2023/06/24 08:54:59;;;;;;;;;;;;;;;29.92;33.98;94975.97;4946463;28;9455;-60
2023/06/24 08:57:34;;;;;;;;;;;;;;;29.91;34.33;94983.53;4954594;28;7582;-60
2023/06/24 09:00:12;;;;;;;;;;;;;;;29.92;33.17;94981.50;4952615;28;9018;-60
2023/06/24 09:02:43;;;;;;;;;;;;;;;29.92;33.59;94976.72;4932104;28;9464;-61
2023/06/24 09:05:10;;;;;;;;;;;;;;;29.91;33.22;94980.75;4952709;28;7732;-60
2023/06/24 09:07:38;;;;;;;;;;;;;;;29.92;34.09;94973.94;4989508;28;7056;-60
2023/06/24 09:10:06;;;;;;;;;;;;;;;29.92;33.34;94979.50;4985517;28;8939;-60
2023/06/24 09:12:36;;;;;;;;;;;;;;;29.91;33.61;94969.66;5003401;28;8819;-61
2023/06/24 09:15:03;;;;;;;;;;;;;;;29.93;33.12;94977.47;5000277;28;6984;-60
2023/06/24 09:17:29;;;;;;;;;;;;;;;29.92;33.65;94973.94;5002063;28;7088;-60
2023/06/24 09:20:04;;;;;;;;;;;;;;;29.93;34.30;94975.41;4999653;28;8665;-61
2023/06/24 09:22:32;;;;;;;;;;;;;;;29.92;33.94;94968.41;5004352;28;9048;-60
2023/06/24 09:25:02;;;;;;;;;;;;;;;29.94;34.36;94967.84;5019947;28;8661;-61
2023/06/24 09:27:32;;;;;;;;;;;;;;;29.94;33.82;94971.38;5025871;28;7031;-61
2023/06/24 09:30:18;;;;;;;;;;;;;;;29.95;34.01;94953.44;5053283;28;7264;-60
2023/06/24 09:32:44;;;;;;;;;;;;;;;29.98;33.95;94957.19;5024918;28;7101;-61
2023/06/24 09:35:15;;;;;;;;;;;;;;;29.97;33.73;94952.94;5019596;28;9694;-61
2023/06/24 09:37:59;;;;;;;;;;;;;;;29.98;33.32;94946.88;5025647;28;7268;-61
2023/06/24 09:40:27;;;;;;;;;;;;;;;30.00;33.73;94951.88;5018566;28;7268;-61
2023/06/24 09:43:04;;;;;;;;;;;;;;;29.98;33.55;94941.31;5021474;28;9213;-61
2023/06/24 09:45:33;;;;;;;;;;;;;;;30.03;33.86;94953.59;5033568;28;7139;-61
2023/06/24 09:47:59;;;;;;;;;;;;;;;30.04;34.10;94946.78;5021803;28;7271;-61
2023/06/24 09:50:27;;;;;;;;;;;;;;;30.03;34.04;94946.03;5029989;28;8716;-61
2023/06/24 09:52:57;;;;;;;;;;;;;;;30.04;34.00;94947.53;5029994;28;9424;-61
2023/06/24 09:55:26;;;;;;;;;;;;;;;30.04;33.42;94944.00;5021880;28;7243;-61
2023/06/24 09:57:53;;;;;;;;;;;;;;;30.04;33.25;94944.00;5045336;28;8741;-61
2023/06/24 10:00:22;;;;;;;;;;;;;;;30.04;33.06;94938.44;5022078;28;7279;-61
2023/06/24 10:02:49;;;;;;;;;;;;;;;30.06;33.71;94933.16;5042298;28;9008;-61
2023/06/24 10:05:15;;;;;;;;;;;;;;;30.04;33.63;94933.66;5025198;28;7551;-61
2023/06/24 10:07:43;;;;;;;;;;;;;;;30.04;32.66;94933.66;5037855;28;7051;-61
2023/06/24 10:10:12;;;;;;;;;;;;;;;30.04;33.79;94939.19;5038934;28;7100;-60
2023/06/24 10:12:38;;;;;;;;;;;;;;;30.06;33.01;94931.09;5026418;28;7274;-61
2023/06/24 10:15:08;;;;;;;;;;;;;;;30.07;33.80;94935.38;5020671;28;7304;-60
2023/06/24 10:17:39;;;;;;;;;;;;;;;30.07;33.35;94932.59;5026350;28;8715;-60
2023/06/24 10:20:08;;;;;;;;;;;;;;;30.09;33.27;94930.06;5019721;28;10079;-61
2023/06/24 10:22:46;;;;;;;;;;;;;;;30.11;33.11;94929.53;5025346;28;7028;-61
2023/06/24 10:25:25;;;;;;;;;;;;;;;30.11;33.63;94927.50;5025500;28;7688;-61
2023/06/24 10:28:03;;;;;;;;;;;;;;;30.11;33.22;94923.97;5033378;28;7104;-61
2023/06/24 10:31:27;;;;;;;;;;;;;;;30.12;32.58;94925.47;5026601;28;8963;-61
2023/06/24 10:34:32;;;;;;;;;;;;;;;30.12;33.41;94915.13;4968321;28;7055;-60
2023/06/24 10:37:31;;;;;;;;;;;;;;;30.11;32.83;94910.09;4963470;28;9104;-61
2023/06/24 10:40:07;;;;;;;;;;;;;;;30.12;33.23;94912.38;4966992;28;8715;-61
2023/06/24 10:42:37;;;;;;;;;;;;;;;30.12;33.68;94903.28;4946634;28;9363;-60
2023/06/24 10:45:24;;;;;;;;;;;;;;;30.14;33.69;94909.06;4964741;28;7081;-61
2023/06/24 10:48:19;;;;;;;;;;;;;;;30.14;33.13;94906.28;4949785;28;9216;-61
2023/06/24 10:51:01;;;;;;;;;;;;;;;30.14;32.73;94893.16;4961815;28;8997;-61
2023/06/24 10:53:38;;;;;;;;;;;;;;;30.14;32.69;94887.59;4964023;28;7027;-61
2023/06/24 10:56:17;;;;;;;;;;;;;;;30.16;32.86;94890.59;4952850;28;7269;-61
2023/06/24 10:58:55;;;;;;;;;;;;;;;30.17;32.78;94885.78;4963553;28;7395;-61
2023/06/24 11:01:22;;;;;;;;;;;;;;;30.16;32.61;94890.59;4956701;28;7147;-60
2023/06/24 11:03:48;;;;;;;;;;;;;;;30.14;33.75;94884.84;4958379;28;8728;-61
2023/06/24 11:06:17;;;;;;;;;;;;;;;30.16;33.17;94885.06;4956141;28;7355;-61
2023/06/24 11:08:44;;;;;;;;;;;;;;;30.18;33.59;94882.50;5013753;28;7117;-61
2023/06/24 11:11:45;;;;;;;;;;;;;;;30.18;33.67;94876.94;5030317;28;7313;-61
2023/06/24 11:14:46;;;;;;;;;;;;;;;30.18;34.03;94873.41;4971896;28;9420;-61
2023/06/24 11:17:50;;;;;;;;;;;;;;;30.17;33.34;94871.91;4969594;28;7035;-61
2023/06/24 11:20:17;;;;;;;;;;;;;;;30.17;33.82;94864.34;4952138;28;7259;-61
2023/06/24 11:22:46;;;;;;;;;;;;;;;30.17;33.90;94861.56;4967995;28;7167;-61
2023/06/24 11:25:24;;;;;;;;;;;;;;;30.16;33.28;94854.53;4948790;28;7206;-61
2023/06/24 11:27:53;;;;;;;;;;;;;;;30.18;33.93;94849.19;4963092;28;7354;-61
2023/06/24 11:30:21;;;;;;;;;;;;;;;30.16;33.89;94846.22;4960839;28;7296;-60
2023/06/24 11:32:50;;;;;;;;;;;;;;;30.21;33.60;94842.56;4965656;28;8992;-60
2023/06/24 11:35:16;;;;;;;;;;;;;;;30.20;33.13;94840.34;4968263;28;7261;-60
2023/06/24 11:37:58;;;;;;;;;;;;;;;30.26;34.06;94841.72;4954131;28;9003;-61
2023/06/24 11:40:27;;;;;;;;;;;;;;;30.26;33.96;94833.41;4953694;28;7151;-61
2023/06/24 11:43:09;;;;;;;;;;;;;;;30.26;34.05;94838.19;4970366;28;7135;-61
2023/06/24 11:45:48;;;;;;;;;;;;;;;30.27;33.09;94834.16;4967940;28;7263;-60
2023/06/24 11:49:09;;;;;;;;;;;;;;;30.27;34.19;94831.38;5006569;28;8707;-60
2023/06/24 11:52:14;;;;;;;;;;;;;;;30.26;34.06;94829.88;5025086;28;9009;-61
2023/06/24 11:55:19;;;;;;;;;;;;;;;30.27;33.97;94825.84;5044299;28;7116;-60
2023/06/24 11:58:06;;;;;;;;;;;;;;;30.25;33.24;94820.81;5024216;28;9201;-61
2023/06/24 12:01:18;;;;;;;;;;;;;;;30.27;34.17;94823.81;5024430;28;7515;-61
2023/06/24 12:04:17;;;;;;;;;;;;;;;30.29;33.87;94826.81;4966011;28;7150;-61
2023/06/24 12:07:18;;;;;;;;;;;;;;;30.31;34.06;94829.81;4947899;28;7030;-60
2023/06/24 12:13:27;;;;;;;;;;;;;;;30.31;34.63;94824.28;4970310;28;9477;-61
2023/06/24 12:16:12;;;;;;;;;;;;;;;30.31;34.11;94813.16;4953158;28;9174;-60
2023/06/24 12:18:47;;;;;;;;;;;;;;;30.33;34.24;94816.16;4944945;28;9592;-61
2023/06/24 12:21:15;;;;;;;;;;;;;;;30.34;34.51;94812.09;4952227;28;8764;-60
2023/06/24 12:23:44;;;;;;;;;;;;;;;30.38;34.48;94822.88;4951891;28;7393;-61
2023/06/24 12:26:27;;;;;;;;;;;;;;;30.39;34.32;94813.28;4964250;28;7061;-60
2023/06/24 12:28:57;;;;;;;;;;;;;;;30.39;34.06;94813.28;4950352;28;7068;-60
2023/06/24 12:31:33;;;;;;;;;;;;;;;30.41;34.36;94822.56;4947147;28;7237;-60
2023/06/24 12:34:36;;;;;;;;;;;;;;;30.41;34.48;94814.22;4946511;28;7276;-61
2023/06/24 12:37:16;;;;;;;;;;;;;;;30.43;33.95;94825.56;4945003;29;7433;-61
2023/06/24 12:39:44;;;;;;;;;;;;;;;30.43;34.07;94825.56;4948131;28;9687;-60
2023/06/24 12:42:10;;;;;;;;;;;;;;;30.45;33.25;94825.75;4968406;28;9040;-61
2023/06/24 12:44:40;;;;;;;;;;;;;;;30.46;33.47;94818.94;4970665;28;10037;-61
2023/06/24 12:47:44;;;;;;;;;;;;;;;30.47;33.24;94820.44;4954092;28;7019;-61
2023/06/24 12:50:12;;;;;;;;;;;;;;;30.47;33.79;94812.09;4955888;28;7562;-61
2023/06/24 12:52:40;;;;;;;;;;;;;;;30.50;33.15;94813.81;4967156;28;8741;-60
2023/06/24 12:55:09;;;;;;;;;;;;;;;30.48;33.75;94804.53;4971178;28;8689;-60
2023/06/24 12:57:43;;;;;;;;;;;;;;;30.48;32.72;94816.38;4971092;28;7333;-61
2023/06/24 13:00:11;;;;;;;;;;;;;;;30.47;32.74;94806.53;4971078;28;8829;-61
2023/06/24 13:02:39;;;;;;;;;;;;;;;30.46;32.36;94804.31;4951835;28;8259;-60
2023/06/24 13:05:10;;;;;;;;;;;;;;;30.46;33.79;94813.41;4951837;28;7350;-60
2023/06/24 13:07:39;;;;;;;;;;;;;;;30.50;33.14;94797.16;4951030;28;9235;-60
2023/06/24 13:10:11;;;;;;;;;;;;;;;30.51;33.30;94803.47;4973080;28;9129;-61
2023/06/24 13:12:37;;;;;;;;;;;;;;;30.55;32.99;94795.56;5022545;28;9148;-60
2023/06/24 13:15:06;;;;;;;;;;;;;;;30.56;33.78;94799.09;5045904;28;7064;-60
2023/06/24 13:17:32;;;;;;;;;;;;;;;30.59;33.69;94798.00;5028570;28;9112;-61
2023/06/24 13:19:59;;;;;;;;;;;;;;;30.61;33.74;94795.44;5029043;28;7249;-60
2023/06/24 13:23:18;;;;;;;;;;;;;;;30.63;33.71;94796.41;5024766;28;7210;-60
2023/06/24 13:26:00;;;;;;;;;;;;;;;30.66;33.89;94800.16;4956033;28;7044;-60
2023/06/24 13:28:40;;;;;;;;;;;;;;;30.66;33.20;94797.38;4964493;28;9028;-61
2023/06/24 13:31:15;;;;;;;;;;;;;;;30.69;33.77;94793.53;4961017;28;9019;-60
2023/06/24 13:34:00;;;;;;;;;;;;;;;30.70;33.27;94781.88;4967757;28;7030;-60
2023/06/24 13:36:46;;;;;;;;;;;;;;;30.71;33.64;94783.34;4964685;28;9075;-60
2023/06/24 13:39:16;;;;;;;;;;;;;;;30.74;33.85;94778.75;4955467;28;7152;-60
2023/06/24 13:41:46;;;;;;;;;;;;;;;30.74;33.92;94779.53;4970908;28;8462;-60
2023/06/24 13:44:59;;;;;;;;;;;;;;;30.76;34.07;94778.97;4970965;28;7277;-60
2023/06/24 13:47:26;;;;;;;;;;;;;;;30.78;33.58;94773.63;4898211;29;7459;-60
2023/06/24 13:50:10;;;;;;;;;;;;;;;30.80;33.02;94773.88;4882391;29;7182;-60
2023/06/24 13:52:48;;;;;;;;;;;;;;;30.79;33.84;94777.91;4898042;29;9105;-61
2023/06/24 13:55:26;;;;;;;;;;;;;;;30.81;33.44;94769.78;4897283;29;7407;-61
2023/06/24 13:58:24;;;;;;;;;;;;;;;30.83;33.37;94781.09;4897452;29;7134;-60
2023/06/24 14:01:31;;;;;;;;;;;;;;;30.83;33.59;94765.19;4895544;29;9636;-60
2023/06/24 14:03:58;;;;;;;;;;;;;;;30.84;33.71;94763.16;4972907;28;7434;-61
2023/06/24 14:06:32;;;;;;;;;;;;;;;30.86;33.25;94764.16;4973525;28;7598;-61